Time;durP1;ratioP1;P1;durP2;ratioP2;P2;SDS_P1;SDS_P2;PMS_P1;PMS_P2;Temp;Humidity;BMP_temperature;BMP_pressure;BME280_temperature;BME280_humidity;BME280_pressure;Samples;Min_cycle;Max_cycle;Signal;HPM_P1;HPM_P2
2023/04/30 00:02:00;;;;;;;9.70;3.08;;;;;;;;;;4900030;29;20059;-69
2023/04/30 00:04:27;;;;;;;10.18;3.10;;;;;;;;;;4900013;29;20127;-69
2023/04/30 00:06:53;;;;;;;8.88;3.22;;;;;;;;;;4900085;29;20048;-69
2023/04/30 00:09:19;;;;;;;15.73;3.17;;;;;;;;;;4900140;29;20398;-69
2023/04/30 00:11:45;;;;;;;10.77;3.30;;;;;;;;;;4871392;29;20088;-69
2023/04/30 00:14:11;;;;;;;15.82;3.33;;;;;;;;;;4920716;29;20044;-69
2023/04/30 00:16:37;;;;;;;6.55;2.95;;;;;;;;;;4903910;29;20056;-69
2023/04/30 00:19:03;;;;;;;8.23;2.80;;;;;;;;;;4888220;29;20103;-69
2023/04/30 00:21:29;;;;;;;5.65;2.80;;;9.20;99.90;;;;;;4904048;29;20397;-70
2023/04/30 00:23:55;;;;;;;7.10;2.83;;;;;;;;;;4903991;29;20071;-69
2023/04/30 00:26:21;;;;;;;11.48;3.45;;;;;;;;;;4888053;29;20044;-70
2023/04/30 00:28:47;;;;;;;11.20;3.28;;;;;;;;;;4903698;29;20107;-69
2023/04/30 00:31:16;;;;;;;12.30;3.05;;;9.40;99.90;;;;;;4887932;29;20050;-69
2023/04/30 00:33:42;;;;;;;8.55;3.10;;;;;;;;;;4903577;29;20115;-69
2023/04/30 00:36:08;;;;;;;7.55;2.75;;;;;;;;;;4920357;29;20040;-69
2023/04/30 00:38:34;;;;;;;11.00;3.67;;;;;;;;;;4903253;29;20040;-69
2023/04/30 00:41:00;;;;;;;12.10;3.53;;;;;;;;;;4887721;29;20089;-70
2023/04/30 00:43:26;;;;;;;9.40;3.40;;;;;;;;;;4903259;29;20123;-70
2023/04/30 00:45:52;;;;;;;12.45;3.10;;;;;;;;;;4903594;29;20036;-69
2023/04/30 00:48:18;;;;;;;8.48;2.83;;;;;;;;;;4920162;29;20050;-69
2023/04/30 00:50:44;;;;;;;10.80;2.97;;;;;;;;;;4903198;29;20131;-69
2023/04/30 00:53:11;;;;;;;12.20;3.00;;;8.70;99.90;;;;;;4920170;29;20036;-68
2023/04/30 00:55:39;;;;;;;8.52;3.30;;;8.70;99.90;;;;;;4887521;29;20124;-68
2023/04/30 00:58:05;;;;;;;9.00;3.40;;;;;;;;;;4902927;29;20051;-68
2023/04/30 01:00:31;;;;;;;9.18;3.00;;;;;;;;;;4902927;29;20055;-68
2023/04/30 01:02:57;;;;;;;13.30;4.28;;;;;;;;;;4919794;29;20059;-68
2023/04/30 01:05:24;;;;;;;8.13;3.15;;;;;;;;;;4903098;29;20048;-69
2023/04/30 01:07:50;;;;;;;9.95;2.97;;;;;;;;;;4902676;29;20047;-69
2023/04/30 01:10:17;;;;;;;11.45;3.10;;;;;;;;;;4872121;29;20107;-69
2023/04/30 01:12:43;;;;;;;7.63;3.40;;;;;;;;;;4902794;29;20545;-69
2023/04/30 01:15:32;;;;;;;13.02;3.67;;;7.80;99.90;;;;;;4919714;29;20489;-69
2023/04/30 01:18:07;;;;;;;7.00;3.25;;;9.20;99.90;;;;;;4893485;29;20052;-69
2023/04/30 01:20:34;;;;;;;10.45;3.15;;;;;;;;;;4917653;29;20508;-69
2023/04/30 01:23:11;;;;;;;9.10;3.80;;;9.00;99.90;;;;;;4902448;29;20489;-69
2023/04/30 01:26:06;;;;;;;9.20;3.47;;;8.90;99.90;;;;;;4902520;29;20516;-69
2023/04/30 01:28:35;;;;;;;6.18;3.17;;;8.70;99.90;;;;;;4903197;29;20393;-69
2023/04/30 01:31:01;;;;;;;8.65;4.30;;;;;;;;;;4902413;29;20044;-69
2023/04/30 01:33:27;;;;;;;15.00;3.80;;;;;;;;;;4887101;29;20378;-69
2023/04/30 01:35:53;;;;;;;15.05;4.07;;;;;;;;;;4902855;29;20106;-69
2023/04/30 01:38:34;;;;;;;10.52;3.33;;;8.80;99.90;;;;;;4886850;29;20403;-69
2023/04/30 01:41:00;;;;;;;11.73;3.88;;;;;;;;;;4893106;29;20076;-69
2023/04/30 01:43:26;;;;;;;13.23;4.47;;;;;;;;;;4884268;29;20497;-69
2023/04/30 01:46:28;;;;;;;10.98;3.92;;;7.90;99.90;;;;;;4902444;29;20048;-69
2023/04/30 01:49:15;;;;;;;10.48;4.22;;;8.80;99.90;;;;;;4867689;29;20456;-69
2023/04/30 01:51:45;;;;;;;9.65;3.42;;;8.90;99.90;;;;;;4902070;29;20048;-69
2023/04/30 01:54:11;;;;;;;10.15;3.63;;;;;;;;;;4902212;29;20032;-69
2023/04/30 01:56:43;;;;;;;13.00;3.90;;;9.00;99.90;;;;;;4902129;29;20043;-69
2023/04/30 01:59:09;;;;;;;9.68;3.72;;;;;;;;;;4886650;29;20237;-69
2023/04/30 02:01:36;;;;;;;12.48;3.55;;;9.10;99.90;;;;;;4902213;29;20048;-69
2023/04/30 02:04:03;;;;;;;8.13;3.47;;;;;;;;;;4918949;29;20051;-69
2023/04/30 02:06:30;;;;;;;10.07;3.85;;;;;;;;;;4901909;29;20040;-69
2023/04/30 02:09:01;;;;;;;11.50;4.93;;;8.90;99.90;;;;;;4901945;29;20396;-69
2023/04/30 02:11:27;;;;;;;11.65;3.90;;;;;;;;;;4886240;29;20055;-69
2023/04/30 02:13:53;;;;;;;9.52;3.90;;;;;;;;;;4886070;29;20040;-70
2023/04/30 02:16:19;;;;;;;10.65;3.83;;;;;;;;;;4901623;29;20396;-69
2023/04/30 02:18:45;;;;;;;11.13;4.40;;;;;;;;;;4901732;29;20123;-69
2023/04/30 02:21:13;;;;;;;10.35;3.55;;;;;;;;;;4901506;29;20616;-69
2023/04/30 02:23:39;;;;;;;6.82;3.80;;;;;;;;;;4901760;29;20113;-69
2023/04/30 02:26:05;;;;;;;12.13;3.65;;;;;;;;;;4901354;29;20453;-69
2023/04/30 02:28:31;;;;;;;14.45;4.18;;;;;;;;;;4901281;29;20454;-69
2023/04/30 02:30:57;;;;;;;8.32;3.80;;;;;;;;;;4918338;29;20059;-69
2023/04/30 02:33:23;;;;;;;9.07;3.80;;;;;;;;;;4900623;29;20040;-70
2023/04/30 02:35:49;;;;;;;10.85;3.58;;;;;;;;;;4918324;29;20115;-70
2023/04/30 02:38:16;;;;;;;9.13;3.58;;;;;;;;;;4901408;29;20048;-69
2023/04/30 02:40:42;;;;;;;10.65;3.55;;;;;;;;;;4901555;29;20091;-69
2023/04/30 02:43:08;;;;;;;11.40;3.63;;;;;;;;;;4901272;29;20048;-69
2023/04/30 02:45:34;;;;;;;11.13;3.60;;;;;;;;;;4918248;29;20055;-70
2023/04/30 02:48:00;;;;;;;12.60;3.70;;;;;;;;;;4917927;29;20056;-70
2023/04/30 02:50:26;;;;;;;8.85;3.30;;;;;;;;;;4901007;29;20052;-70
2023/04/30 02:52:52;;;;;;;13.13;3.72;;;;;;;;;;4900991;29;20071;-70
2023/04/30 02:55:18;;;;;;;10.63;3.65;;;;;;;;;;4900894;29;20079;-69
2023/04/30 02:57:44;;;;;;;9.20;4.05;;;;;;;;;;4900948;29;20048;-69
2023/04/30 03:00:11;;;;;;;13.65;3.70;;;;;;;;;;4901057;29;20501;-70
2023/04/30 03:02:37;;;;;;;11.27;4.07;;;;;;;;;;4900741;29;20401;-69
2023/04/30 03:05:03;;;;;;;9.63;3.63;;;9.20;99.90;;;;;;4917820;29;20147;-69
2023/04/30 03:07:29;;;;;;;11.13;5.68;;;;;;;;;;4885044;29;20568;-69
2023/04/30 03:09:55;;;;;;;9.43;4.20;;;7.70;99.90;;;;;;4917699;29;20044;-69
2023/04/30 03:12:21;;;;;;;13.68;4.30;;;;;;;;;;4900876;29;20483;-69
2023/04/30 03:14:47;;;;;;;10.73;3.95;;;;;;;;;;4885095;29;20047;-69
2023/04/30 03:17:13;;;;;;;6.88;3.35;;;;;;;;;;4900454;29;20445;-69
2023/04/30 03:19:39;;;;;;;8.23;3.30;;;;;;;;;;4885269;29;20048;-69
2023/04/30 03:22:05;;;;;;;8.60;3.47;;;;;;;;;;4885031;29;20050;-69
2023/04/30 03:24:33;;;;;;;11.20;3.60;;;;;;;;;;4900595;29;20103;-70
2023/04/30 03:27:00;;;;;;;9.80;3.25;;;;;;;;;;4900296;29;20060;-69
2023/04/30 03:29:26;;;;;;;9.63;3.25;;;;;;;;;;4900468;29;20044;-69
2023/04/30 03:31:53;;;;;;;9.77;3.03;;;;;;;;;;4884968;29;20044;-69
2023/04/30 03:34:19;;;;;;;13.57;3.65;;;;;;;;;;4884849;29;20048;-69
2023/04/30 03:36:45;;;;;;;11.65;3.22;;;;;;;;;;4900472;29;20044;-69
2023/04/30 03:39:11;;;;;;;9.88;3.38;;;;;;;;;;4900336;29;20127;-69
2023/04/30 03:41:37;;;;;;;18.75;3.63;;;;;;;;;;4917232;29;20052;-69
2023/04/30 03:44:03;;;;;;;9.90;2.80;;;7.80;99.90;;;;;;4900321;29;20039;-71
2023/04/30 03:46:29;;;;;;;8.52;2.63;;;;;;;;;;4900250;29;20500;-69
2023/04/30 03:48:55;;;;;;;9.23;2.72;;;;;;;;;;4900234;29;20055;-69
2023/04/30 03:51:21;;;;;;;11.27;2.97;;;;;;;;;;4900213;29;20466;-69
2023/04/30 03:53:48;;;;;;;5.32;2.80;;;;;;;;;;4900200;29;20048;-68
2023/04/30 03:56:14;;;;;;;12.55;3.53;;;;;;;;;;4900123;29;20055;-68
2023/04/30 03:58:40;;;;;;;9.10;3.17;;;;;;;;;;4900103;29;20051;-68
2023/04/30 04:01:06;;;;;;;6.70;2.70;;;;;;;;;;4917075;29;20400;-68
2023/04/30 04:03:34;;;;;;;8.27;2.75;;;8.30;99.90;;;;;;4900284;29;20040;-68
2023/04/30 04:06:00;;;;;;;7.70;2.60;;;;;;;;;;4900060;29;20501;-68
2023/04/30 04:08:26;;;;;;;8.27;2.97;;;;;;;;;;4899854;29;20058;-68
2023/04/30 04:10:52;;;;;;;12.75;3.25;;;;;;;;;;4917026;29;20062;-68
2023/04/30 04:13:18;;;;;;;10.75;3.13;;;;;;;;;;4916982;29;20524;-68
2023/04/30 04:15:44;;;;;;;9.73;2.70;;;;;;;;;;4916998;29;20433;-68
2023/04/30 04:18:10;;;;;;;10.80;2.90;;;;;;;;;;4916951;29;20048;-68
2023/04/30 04:20:37;;;;;;;10.55;3.22;;;;;;;;;;4884740;29;20392;-68
2023/04/30 04:23:03;;;;;;;9.80;3.53;;;;;;;;;;4899777;29;20054;-68
2023/04/30 04:25:29;;;;;;;6.95;2.92;;;;;;;;;;4900201;29;20449;-68
2023/04/30 04:27:55;;;;;;;9.18;3.53;;;;;;;;;;4899736;29;20048;-68
2023/04/30 04:30:21;;;;;;;14.13;3.42;;;;;;;;;;4899979;29;20052;-68
2023/04/30 04:32:50;;;;;;;6.88;3.10;;;;;;;;;;4900038;29;20036;-68
2023/04/30 04:35:19;;;;;;;7.18;2.97;;;8.70;99.90;;;;;;4916664;29;20051;-69
2023/04/30 04:37:45;;;;;;;11.00;3.63;;;;;;;;;;4900008;29;20048;-69
2023/04/30 04:40:12;;;;;;;8.02;3.15;;;;;;;;;;4899824;29;20048;-69
2023/04/30 04:42:38;;;;;;;6.88;3.15;;;;;;;;;;4884555;29;20076;-69
2023/04/30 04:45:06;;;;;;;11.82;3.40;;;8.10;99.90;;;;;;4916797;29;20131;-69
2023/04/30 04:47:32;;;;;;;4.97;3.20;;;;;;;;;;4899638;29;20085;-69
2023/04/30 04:49:59;;;;;;;11.35;3.28;;;;;;;;;;4900064;29;20389;-69
2023/04/30 04:52:25;;;;;;;7.88;3.25;;;;;;;;;;4900036;29;20095;-69
2023/04/30 04:54:51;;;;;;;9.95;3.33;;;;;;;;;;4899991;29;20366;-67
2023/04/30 04:57:18;;;;;;;8.30;2.85;;;;;;;;;;4900829;29;20126;-67
2023/04/30 04:59:44;;;;;;;7.30;2.90;;;;;;;;;;4902981;29;20103;-68
2023/04/30 05:02:10;;;;;;;10.30;3.63;;;;;;;;;;4902994;29;20050;-67
2023/04/30 05:04:36;;;;;;;13.20;3.78;;;;;;;;;;4902868;29;20584;-67
2023/04/30 05:07:02;;;;;;;9.13;3.60;;;;;;;;;;4903048;29;20062;-68
2023/04/30 05:09:28;;;;;;;15.23;3.90;;;;;;;;;;4871714;29;20048;-68
2023/04/30 05:11:54;;;;;;;9.18;3.83;;;;;;;;;;4902797;29;20048;-68
2023/04/30 05:14:20;;;;;;;11.70;3.40;;;;;;;;;;4903005;29;20066;-68
2023/04/30 05:16:46;;;;;;;9.93;3.60;;;;;;;;;;4902778;29;20044;-68
2023/04/30 05:19:13;;;;;;;7.97;3.60;;;;;;;;;;4887212;29;20076;-67
2023/04/30 05:21:39;;;;;;;9.95;2.85;;;;;;;;;;4887027;29;20493;-68
2023/04/30 05:24:05;;;;;;;10.75;3.55;;;;;;;;;;4903341;29;20091;-68
2023/04/30 05:26:31;;;;;;;8.23;3.10;;;;;;;;;;4919234;29;20056;-68
2023/04/30 05:28:57;;;;;;;9.45;3.10;;;;;;;;;;4902455;29;20067;-68
2023/04/30 05:31:23;;;;;;;9.27;3.50;;;;;;;;;;4919451;29;20036;-68
2023/04/30 05:33:49;;;;;;;10.27;3.92;;;;;;;;;;4902531;29;20040;-68
2023/04/30 05:36:15;;;;;;;14.57;3.72;;;;;;;;;;4902710;29;20059;-68
2023/04/30 05:38:41;;;;;;;7.82;3.65;;;;;;;;;;4886962;29;20036;-68
2023/04/30 05:41:10;;;;;;;11.75;3.25;;;8.10;99.90;;;;;;4902709;29;20488;-68
2023/04/30 05:43:36;;;;;;;9.25;3.33;;;;;;;;;;4902209;29;20048;-68
2023/04/30 05:46:02;;;;;;;9.18;3.90;;;;;;;;;;4902256;29;20494;-69
2023/04/30 05:48:29;;;;;;;11.32;3.20;;;;;;;;;;4902176;29;20043;-68
2023/04/30 05:50:55;;;;;;;9.48;3.20;;;;;;;;;;4902559;29;20067;-69
2023/04/30 05:53:21;;;;;;;9.98;3.92;;;;;;;;;;4919076;29;20540;-68
2023/04/30 05:55:47;;;;;;;10.32;3.28;;;;;;;;;;4886866;29;20039;-68
2023/04/30 05:58:14;;;;;;;10.20;4.20;;;;;;;;;;4902118;29;20107;-68
2023/04/30 06:00:40;;;;;;;12.63;3.70;;;;;;;;;;4902449;29;20048;-69
2023/04/30 06:03:06;;;;;;;8.70;3.55;;;;;;;;;;4901838;29;20489;-69
2023/04/30 06:05:32;;;;;;;13.68;3.72;;;;;;;;;;4901825;29;20433;-68
2023/04/30 06:07:58;;;;;;;8.23;2.78;;;;;;;;;;4918187;29;20472;-67
2023/04/30 06:10:25;;;;;;;11.07;3.25;;;;;;;;;;4885931;29;20044;-67
2023/04/30 06:12:51;;;;;;;13.55;3.35;;;;;;;;;;4901706;29;20051;-68
2023/04/30 06:15:17;;;;;;;11.20;3.70;;;;;;;;;;4901677;29;20585;-68
2023/04/30 06:17:43;;;;;;;9.18;3.33;;;;;;;;;;4901879;29;20444;-68
2023/04/30 06:20:09;;;;;;;11.35;3.25;;;7.70;99.90;;;;;;4901643;29;20130;-68
2023/04/30 06:22:36;;;;;;;9.60;4.72;;;;;;;;;;4901647;29;20204;-68
2023/04/30 06:25:02;;;;;;;9.07;3.42;;;;;;;;;;4885940;29;20055;-68
2023/04/30 06:27:28;;;;;;;8.98;3.13;;;;;;;;;;4901306;29;20622;-68
2023/04/30 06:29:54;;;;;;;10.95;4.03;;;;;;;;;;4901278;29;20056;-68
2023/04/30 06:32:21;;;;;;;12.00;3.30;;;;;;;;;;4901396;29;20051;-68
2023/04/30 06:34:47;;;;;;;7.38;3.63;;;;;;;;;;4901308;29;20048;-68
2023/04/30 06:37:13;;;;;;;8.07;3.83;;;;;;;;;;4918072;29;20515;-68
2023/04/30 06:39:39;;;;;;;8.70;4.10;;;;;;;;;;4901334;29;20048;-68
2023/04/30 06:42:05;;;;;;;12.75;4.00;;;;;;;;;;4901237;29;20198;-68
2023/04/30 06:44:31;;;;;;;12.95;4.00;;;;;;;;;;4901406;29;20085;-68
2023/04/30 06:46:58;;;;;;;13.20;4.47;;;;;;;;;;4901142;29;20489;-68
2023/04/30 06:49:24;;;;;;;10.88;3.85;;;;;;;;;;4901163;29;20083;-68
2023/04/30 06:51:50;;;;;;;14.35;4.03;;;;;;;;;;4917959;29;20046;-68
2023/04/30 06:54:16;;;;;;;16.13;4.10;;;;;;;;;;4900853;29;20392;-68
2023/04/30 06:56:43;;;;;;;13.98;4.60;;;;;;;;;;4885350;29;20104;-68
2023/04/30 06:59:10;;;;;;;11.20;4.05;;;;;;;;;;4918078;29;20040;-68
2023/04/30 07:01:36;;;;;;;9.23;4.18;;;;;;;;;;4900835;29;20044;-68
2023/04/30 07:04:02;;;;;;;19.80;4.50;;;;;;;;;;4900837;29;20489;-68
2023/04/30 07:06:28;;;;;;;8.50;4.07;;;;;;;;;;4917570;29;20082;-69
2023/04/30 07:08:54;;;;;;;9.73;4.50;;;;;;;;;;4918005;29;20481;-69
2023/04/30 07:11:20;;;;;;;10.73;4.00;;;;;;;;;;4917653;29;20171;-68
2023/04/30 07:13:46;;;;;;;9.65;3.97;;;;;;;;;;4900671;29;20055;-68
2023/04/30 07:16:13;;;;;;;12.30;4.13;;;;;;;;;;4885322;29;20184;-68
2023/04/30 07:18:39;;;;;;;11.27;4.40;;;;;;;;;;4885390;29;20520;-68
2023/04/30 07:21:07;;;;;;;18.02;4.38;;;;;;;;;;4900157;29;20051;-68
2023/04/30 07:23:33;;;;;;;11.18;3.60;;;;;;;;;;4884933;29;20040;-68
2023/04/30 07:25:59;;;;;;;11.52;4.65;;;;;;;;;;4917745;29;20123;-68
2023/04/30 07:28:25;;;;;;;10.27;3.65;;;;;;;;;;4900264;29;20126;-68
2023/04/30 07:30:52;;;;;;;9.65;4.40;;;;;;;;;;4884841;29;20055;-68
2023/04/30 07:33:18;;;;;;;14.38;4.28;;;;;;;;;;4900573;29;20040;-68
2023/04/30 07:35:44;;;;;;;15.50;3.85;;;;;;;;;;4900245;29;20051;-68
2023/04/30 07:38:10;;;;;;;11.13;3.97;;;;;;;;;;4917086;29;20079;-68
2023/04/30 07:40:36;;;;;;;15.70;4.53;;;;;;;;;;4900425;29;20052;-68
2023/04/30 07:43:03;;;;;;;16.80;3.88;;;;;;;;;;4884796;29;20040;-68
2023/04/30 07:45:30;;;;;;;13.27;4.70;;;;;;;;;;4900665;29;20063;-68
2023/04/30 07:47:56;;;;;;;14.13;4.20;;;;;;;;;;4900197;29;20056;-68
2023/04/30 07:50:23;;;;;;;10.38;3.90;;;;;;;;;;4900197;29;20103;-68
2023/04/30 07:52:49;;;;;;;13.38;4.55;;;;;;;;;;4884998;29;20469;-68
2023/04/30 07:55:15;;;;;;;10.85;3.67;;;;;;;;;;4900402;29;20131;-69
2023/04/30 07:57:42;;;;;;;11.98;3.55;;;;;;;;;;4869090;29;20052;-68
2023/04/30 08:00:08;;;;;;;11.85;4.28;;;11.70;99.90;;;;;;4884861;29;20071;-68
2023/04/30 08:02:36;;;;;;;10.77;4.20;;;;;;;;;;4900156;29;20511;-69
2023/04/30 08:05:02;;;;;;;6.93;3.10;;;;;;;;;;4899986;29;20516;-68
2023/04/30 08:07:28;;;;;;;8.85;3.33;;;;;;;;;;4899719;29;20057;-69
2023/04/30 08:09:55;;;;;;;8.80;4.20;;;;;;;;;;4899999;29;20489;-68
2023/04/30 08:12:21;;;;;;;10.00;3.80;;;;;;;;;;4885118;29;20044;-68
2023/04/30 08:14:47;;;;;;;12.85;3.20;;;;;;;;;;4900064;29;20075;-69
2023/04/30 08:17:13;;;;;;;7.93;3.53;;;;;;;;;;4899723;29;20519;-68
2023/04/30 08:19:39;;;;;;;11.80;4.20;;;;;;;;;;4884154;29;20098;-68
2023/04/30 08:22:05;;;;;;;7.43;3.58;;;;;;;;;;4899784;29;20052;-68
2023/04/30 08:24:31;;;;;;;11.75;3.60;;;;;;;;;;4900032;29;20481;-68
2023/04/30 08:26:59;;;;;;;16.73;5.38;;;;;;;;;;4899678;29;20052;-66
2023/04/30 08:29:26;;;;;;;15.05;3.70;;;;;;;;;;4899910;29;20058;-69
2023/04/30 08:31:52;;;;;;;10.18;3.33;;;;;;;;;;4900941;29;20048;-69
2023/04/30 08:34:18;;;;;;;15.60;3.40;;;;;;;;;;4888048;29;20500;-69
2023/04/30 08:36:44;;;;;;;9.55;2.83;;;;;;;;;;4903437;29;20140;-69
2023/04/30 08:39:11;;;;;;;10.45;3.40;;;;;;;;;;4903199;29;20084;-69
2023/04/30 08:41:39;;;;;;;12.13;2.60;;;;;;;;;;4903390;29;20063;-69
2023/04/30 08:44:05;;;;;;;11.55;3.20;;;;;;;;;;4903468;29;20044;-69
2023/04/30 08:46:31;;;;;;;9.15;2.70;;;;;;;;;;4903374;29;20139;-69
2023/04/30 08:48:58;;;;;;;9.35;2.55;;;;;;;;;;4903070;29;20044;-69
2023/04/30 08:51:25;;;;;;;10.25;2.88;;;11.50;99.90;;;;;;4903359;29;20079;-69
2023/04/30 08:53:54;;;;;;;8.40;3.30;;;11.90;99.90;;;;;;4903105;29;20502;-69
2023/04/30 08:56:20;;;;;;;17.67;3.95;;;;;;;;;;4887869;29;20052;-69
2023/04/30 08:58:46;;;;;;;9.88;3.50;;;;;;;;;;4919771;29;20044;-66
2023/04/30 09:01:13;;;;;;;7.97;2.72;;;;;;;;;;4887646;29;20055;-68
2023/04/30 09:03:39;;;;;;;10.18;3.58;;;;;;;;;;4903010;29;20051;-68
2023/04/30 09:06:05;;;;;;;9.63;3.78;;;;;;;;;;4886983;29;20131;-68
2023/04/30 09:08:47;;;;;;;9.23;3.38;;;;;;;;;;4902534;29;20516;-68
2023/04/30 09:11:24;;;;;;;7.28;3.03;;;;;;;;;;4902946;29;20103;-68
2023/04/30 09:13:54;;;;;;;11.25;4.32;;;;;;;;;;4919518;29;20048;-68
2023/04/30 09:16:20;;;;;;;21.52;4.25;;;12.70;99.90;;;;;;4902784;29;20044;-68
2023/04/30 09:18:47;;;;;;;12.32;3.10;;;13.30;99.90;;;;;;4919644;29;20489;-68
2023/04/30 09:21:13;;;;;;;10.65;3.20;;;;;;;;;;4886938;29;20524;-68
2023/04/30 09:23:59;;;;;;;7.18;3.47;;;12.80;99.90;;;;;;4886911;29;20096;-68
2023/04/30 09:26:36;;;;;;;7.53;3.05;;;13.00;99.90;;;;;;4886556;29;20044;-69
2023/04/30 09:29:06;;;;;;;7.85;2.95;;;;;;;;;;4919251;29;20573;-68
2023/04/30 09:31:36;;;;;;;13.00;3.50;;;;;;;;;;4902458;29;20134;-68
2023/04/30 09:34:06;;;;;;;10.10;3.00;;;;;;;;;;4919181;29;20047;-68
2023/04/30 09:36:32;;;;;;;11.00;3.03;;;;;;;;;;4902740;29;20044;-69
2023/04/30 09:39:12;;;;;;;8.15;2.92;;;13.40;99.90;;;;;;4919063;29;20044;-68
2023/04/30 09:41:39;;;;;;;17.33;3.25;;;;;;;;;;4919148;29;20429;-68
2023/04/30 09:44:05;;;;;;;12.05;3.00;;;;;;;;;;4902096;29;20119;-68
2023/04/30 09:46:32;;;;;;;11.25;3.20;;;;;;;;;;4918887;29;20108;-69
2023/04/30 09:48:59;;;;;;;13.30;3.83;;;13.70;99.90;;;;;;4901983;29;20492;-69
2023/04/30 09:51:26;;;;;;;6.88;2.92;;;13.60;99.90;;;;;;4918911;29;20041;-69
2023/04/30 09:53:53;;;;;;;8.68;3.03;;;13.60;99.90;;;;;;4886461;29;20082;-68
2023/04/30 09:56:23;;;;;;;9.85;3.35;;;;;;;;;;4886474;29;20040;-69
2023/04/30 09:58:52;;;;;;;5.93;2.67;;;13.70;99.90;;;;;;4901639;29;20127;-68
2023/04/30 10:01:19;;;;;;;5.65;2.70;;;13.80;99.90;;;;;;4886129;29;20527;-68
2023/04/30 10:03:45;;;;;;;10.18;3.22;;;;;;;;;;4918796;29;20044;-69
2023/04/30 10:06:17;;;;;;;7.32;3.03;;;14.10;99.90;;;;;;4901932;29;20076;-68
2023/04/30 10:08:46;;;;;;;10.73;3.50;;;14.30;99.90;;;;;;4886344;29;20096;-69
2023/04/30 10:11:17;;;;;;;8.98;3.00;;;14.30;99.90;;;;;;4901858;29;20048;-68
2023/04/30 10:13:49;;;;;;;9.95;3.08;;;14.20;99.90;;;;;;4918816;29;20111;-68
2023/04/30 10:16:26;;;;;;;8.23;3.17;;;14.40;99.90;;;;;;4901672;29;20106;-69
2023/04/30 10:18:53;;;;;;;9.88;3.10;;;14.40;99.90;;;;;;4901879;29;20055;-69
2023/04/30 10:21:23;;;;;;;6.40;3.40;;;14.30;99.90;;;;;;4901425;29;20040;-69
2023/04/30 10:23:50;;;;;;;8.85;3.08;;;14.20;99.90;;;;;;4901412;29;20524;-69
2023/04/30 10:26:17;;;;;;;8.05;3.15;;;;;;;;;;4901440;29;20107;-69
2023/04/30 10:28:44;;;;;;;9.13;2.72;;;14.70;99.90;;;;;;4900963;29;20512;-69
2023/04/30 10:31:11;;;;;;;6.43;2.97;;;14.70;99.90;;;;;;4885866;29;20051;-69
2023/04/30 10:33:48;;;;;;;8.48;3.08;;;15.60;99.90;;;;;;4901964;29;20047;-69
2023/04/30 10:36:27;;;;;;;6.00;3.00;;;15.20;99.90;;;;;;4885987;29;20481;-69
2023/04/30 10:38:53;;;;;;;5.63;2.78;;;;;;;;;;4885882;29;20191;-69
2023/04/30 10:41:19;;;;;;;8.88;3.28;;;;;;;;;;4918391;29;20489;-69
2023/04/30 10:43:46;;;;;;;6.47;2.95;;;15.40;99.90;;;;;;4918030;29;20044;-69
2023/04/30 10:46:21;;;;;;;5.63;2.70;;;15.40;99.90;;;;;;4885431;29;20048;-69
2023/04/30 10:48:47;;;;;;;8.38;3.13;;;;;;;;;;4869975;29;20497;-69
2023/04/30 10:51:13;;;;;;;5.18;2.83;;;;;;;;;;4900940;29;20051;-68
2023/04/30 10:53:41;;;;;;;7.10;2.40;;;;;;;;;;4885634;29;20422;-69
2023/04/30 10:56:08;;;;;;;8.60;2.80;;;;;;;;;;4900494;29;20044;-69
2023/04/30 10:58:35;;;;;;;5.57;2.70;;;15.60;99.90;;;;;;4901031;29;20079;-69
2023/04/30 11:01:03;;;;;;;6.45;2.78;;;;;;;;;;4885195;29;20048;-69
2023/04/30 11:03:29;;;;;;;4.47;2.25;;;;;;;;;;4917681;29;20051;-69
2023/04/30 11:05:56;;;;;;;5.40;2.47;;;;;;;;;;4900723;29;20493;-69
2023/04/30 11:08:36;;;;;;;6.40;3.25;;;15.90;99.90;;;;;;4900525;29;20054;-69
2023/04/30 11:11:03;;;;;;;5.38;2.60;;;;;;;;;;4900778;29;20044;-69
2023/04/30 11:13:43;;;;;;;4.97;2.15;;;16.00;99.90;;;;;;4917623;29;20044;-69
2023/04/30 11:16:09;;;;;;;6.90;2.20;;;;;;;;;;4900302;29;20048;-69
2023/04/30 11:18:44;;;;;;;4.88;2.55;;;15.90;99.90;;;;;;4900813;29;20052;-69
2023/04/30 11:21:11;;;;;;;7.68;2.20;;;;;;;;;;4900419;29;20060;-69
2023/04/30 11:23:41;;;;;;;10.30;2.65;;;16.00;99.90;;;;;;4900490;29;20054;-69
2023/04/30 11:26:07;;;;;;;4.65;2.22;;;;;;;;;;4884742;29;20103;-69
2023/04/30 11:28:34;;;;;;;4.13;1.85;;;;;;;;;;4900123;29;20493;-69
2023/04/30 11:31:00;;;;;;;3.00;1.88;;;16.80;99.90;;;;;;4884615;29;20048;-69
2023/04/30 11:33:28;;;;;;;5.15;1.90;;;16.50;99.90;;;;;;4900134;29;20549;-69
2023/04/30 11:35:56;;;;;;;4.88;2.00;;;16.50;99.90;;;;;;4900175;29;20047;-69
2023/04/30 11:38:27;;;;;;;5.57;2.17;;;;;;;;;;4917208;29;20465;-69
2023/04/30 11:40:53;;;;;;;3.67;1.70;;;;;;;;;;4899980;29;20048;-69
2023/04/30 11:43:32;;;;;;;7.13;2.22;;;16.80;99.90;;;;;;4899798;29;20044;-69
2023/04/30 11:46:10;;;;;;;4.75;2.30;;;15.90;99.90;;;;;;4884339;29;20485;-69
2023/04/30 11:48:41;;;;;;;5.22;1.98;;;16.80;99.90;;;;;;4899958;29;20374;-68
2023/04/30 11:51:18;;;;;;;2.72;1.60;;;16.50;99.90;;;;;;4916933;29;20047;-69
2023/04/30 11:53:48;;;;;;;3.65;1.88;;;;;;;;;;4884225;29;20105;-69
2023/04/30 11:56:24;;;;;;;2.42;1.98;;;16.90;99.90;;;;;;4900056;29;20090;-69
2023/04/30 11:58:52;;;;;;;5.75;2.28;;;16.90;99.90;;;;;;4899884;29;20055;-69
2023/04/30 12:01:19;;;;;;;3.58;1.98;;;16.10;99.90;;;;;;4884315;29;20051;-69
2023/04/30 12:03:51;;;;;;;7.05;2.17;;;16.80;99.90;;;;;;4900224;29;20043;-69
2023/04/30 12:06:27;;;;;;;3.67;1.73;;;17.10;99.90;;;;;;4901616;29;20081;-69
2023/04/30 12:08:54;;;;;;;4.30;2.00;;;17.50;99.90;;;;;;4904024;29;20111;-69
2023/04/30 12:11:21;;;;;;;2.78;1.95;;;17.10;99.90;;;;;;4903718;29;20051;-69
2023/04/30 12:13:54;;;;;;;4.60;2.20;;;;;;;;;;4920849;29;20397;-69
2023/04/30 12:16:20;;;;;;;3.88;1.90;;;;;;;;;;4903638;29;20075;-69
2023/04/30 12:18:50;;;;;;;6.28;1.95;;;16.80;99.90;;;;;;4903895;29;20146;-69
2023/04/30 12:21:17;;;;;;;4.65;1.90;;;16.00;99.90;;;;;;4903582;29;20051;-69
2023/04/30 12:23:44;;;;;;;2.92;1.80;;;;;;;;;;4903709;29;20044;-69
2023/04/30 12:26:10;;;;;;;5.55;1.70;;;;;;;;;;4888120;29;20040;-69
2023/04/30 12:28:36;;;;;;;3.58;1.80;;;;;;;;;;4887517;29;20401;-69
2023/04/30 12:31:04;;;;;;;3.00;1.60;;;17.00;99.90;;;;;;4903440;29;20536;-69
2023/04/30 12:33:30;;;;;;;2.58;1.80;;;16.90;99.90;;;;;;4903307;29;20048;-69
2023/04/30 12:35:59;;;;;;;2.15;1.80;;;17.90;99.90;;;;;;4903382;29;20532;-69
2023/04/30 12:38:25;;;;;;;5.00;1.80;;;17.50;99.90;;;;;;4920331;29;20044;-69
2023/04/30 12:40:51;;;;;;;3.22;1.80;;;;;;;;;;4920434;29;20047;-70
2023/04/30 12:43:17;;;;;;;6.70;2.00;;;;;;;;;;4903041;29;20051;-69
2023/04/30 12:45:54;;;;;;;2.42;1.77;;;17.60;99.90;;;;;;4920109;29;20048;-69
2023/04/30 12:48:24;;;;;;;4.22;1.80;;;18.30;99.90;;;;;;4903135;29;20048;-69
2023/04/30 12:51:00;;;;;;;5.03;1.60;;;16.90;99.90;;;;;;4887544;29;20107;-69
2023/04/30 12:53:26;;;;;;;1.77;1.17;;;17.60;99.90;;;;;;4887581;29;20040;-69
2023/04/30 12:56:15;;;;;;;3.38;1.52;;;18.30;99.90;;;;;;4887566;29;20040;-69
2023/04/30 12:58:48;;;;;;;3.03;1.40;;;16.60;99.90;;;;;;4903081;29;20063;-69
2023/04/30 13:01:17;;;;;;;2.67;1.50;;;17.80;99.90;;;;;;4902653;29;20513;-69
2023/04/30 13:03:43;;;;;;;2.45;1.60;;;;;;;;;;4919888;29;20123;-69
2023/04/30 13:06:09;;;;;;;2.17;1.70;;;17.90;99.90;;;;;;4902783;29;20048;-69
2023/04/30 13:08:35;;;;;;;2.00;1.40;;;;;;;;;;4902587;29;20055;-69
2023/04/30 13:11:02;;;;;;;2.08;1.50;;;;;;;;;;4887398;29;20435;-69
2023/04/30 13:13:28;;;;;;;1.75;1.20;;;;;;;;;;4902648;29;20118;-69
2023/04/30 13:15:54;;;;;;;2.80;1.40;;;;;;;;;;4887078;29;20056;-69
2023/04/30 13:18:21;;;;;;;2.95;1.55;;;;;;;;;;4902071;29;20044;-68
2023/04/30 13:20:47;;;;;;;2.83;1.20;;;;;;;;;;4902697;29;20059;-69
2023/04/30 13:23:13;;;;;;;2.17;1.40;;;;;;;;;;4902670;29;20052;-69
2023/04/30 13:25:40;;;;;;;4.03;1.60;;;18.80;99.90;;;;;;4919321;29;20048;-69
2023/04/30 13:28:06;;;;;;;2.40;1.48;;;18.20;99.90;;;;;;4902249;29;20060;-69
2023/04/30 13:30:33;;;;;;;3.75;1.90;;;;;;;;;;4903094;29;20040;-69
2023/04/30 13:32:59;;;;;;;4.75;1.88;;;19.30;99.90;;;;;;4902608;29;20044;-69
2023/04/30 13:35:25;;;;;;;1.80;1.60;;;;;;;;;;4902210;29;20044;-69
2023/04/30 13:37:52;;;;;;;3.20;1.50;;;;;;;;;;4902445;29;20048;-69
2023/04/30 13:40:19;;;;;;;2.45;1.42;;;19.30;99.90;;;;;;4902622;29;20095;-69
2023/04/30 13:42:46;;;;;;;7.80;1.63;;;19.80;99.90;;;;;;4886389;29;20083;-69
2023/04/30 13:45:12;;;;;;;2.83;1.80;;;;;;;;;;4902344;29;20048;-69
2023/04/30 13:47:39;;;;;;;2.55;1.52;;;;;;;;;;4901936;29;20529;-69
2023/04/30 13:50:06;;;;;;;3.60;1.70;;;20.00;99.90;;;;;;4918953;29;20040;-70
2023/04/30 13:52:32;;;;;;;2.33;1.98;;;19.60;99.90;;;;;;4901932;29;20052;-69
2023/04/30 13:54:59;;;;;;;7.05;1.60;;;;;;;;;;4901990;29;20401;-69
2023/04/30 13:57:24;;;;;;;5.60;2.03;;;20.10;99.90;;;;;;4901959;29;20059;-69
2023/04/30 13:59:51;;;;;;;3.28;1.60;;;;;;;;;;4919185;29;20453;-70
2023/04/30 14:02:17;;;;;;;2.85;1.70;;;19.90;99.90;;;;;;4886472;29;20060;-69
2023/04/30 14:04:43;;;;;;;1.92;1.60;;;20.20;99.90;;;;;;4902001;29;20055;-69
2023/04/30 14:07:09;;;;;;;4.10;2.00;;;;;;;;;;4901772;29;20346;-69